Time;durP1;ratioP1;P1;durP2;ratioP2;P2;SDS_P1;SDS_P2;PMS_P1;PMS_P2;Temp;Humidity;BMP_temperature;BMP_pressure;BME280_temperature;BME280_humidity;BME280_pressure;Samples;Min_cycle;Max_cycle;Signal;HPM_P1;HPM_P2
2022/10/12 06:09:29;;;;;;;8.32;4.63;;;;;;;;;;12577768;22;25287872;-83
2022/10/12 06:14:48;;;;;;;6.30;3.97;;;;;;;;;;12645605;23;20283;-83
2022/10/12 06:26:12;;;;;;;5.00;3.65;;;;;;;;;;12622220;23;20085;-84
2022/10/12 06:31:42;;;;;;;4.15;3.53;;;;;;;;;;12643285;23;20014;-84
2022/10/12 06:43:16;;;;;;;5.88;3.75;;;;;;;;;;12646551;23;20391;-84
2022/10/12 06:48:38;;;;;;;4.32;3.35;;;;;;;;;;12587471;23;20082;-84
2022/10/12 06:54:27;;;;;;;4.93;3.42;;;;;;;;;;12646542;23;20003;-84
2022/10/12 06:59:32;;;;;;;4.68;3.33;;;;;;;;;;12395055;24;20024;-85
2022/10/12 07:15:59;;;;;;;9.82;4.90;;;;;;;;;;12766752;23;20094;-83
2022/10/12 07:50:17;;;;;;;7.28;4.72;;;;;;;;;;12701469;23;20002;-86
2022/10/12 08:07:38;;;;;;;7.65;4.57;;;;;;;;;;12578142;23;20019;-85
2022/10/12 08:13:33;;;;;;;7.13;4.70;;;;;;;;;;12589572;23;20015;-85
2022/10/12 08:19:03;;;;;;;6.07;4.30;;;;;;;;;;12646359;23;20014;-83
2022/10/12 08:35:46;;;;;;;20.02;13.60;;;;;;;;;;12693443;23;20037;-81
2022/10/12 08:46:57;;;;;;;8.82;5.18;;;;;;;;;;12693764;23;20022;-82
2022/10/12 09:31:43;;;;;;;10.30;4.32;;;;;;;;;;12693487;23;20006;-83
2022/10/12 09:43:00;;;;;;;7.60;3.40;;;;;;;;;;12694412;23;20001;-81
2022/10/12 09:48:07;;;;;;;;;;;;;;;;;;12698079;23;20038;-81
2022/10/12 09:53:47;;;;;;;6.45;3.40;;;;;;;;;;12665322;23;20285;-81
2022/10/12 09:59:33;;;;;;;7.07;2.95;;;;;;;;;;12667230;23;20077;-82
2022/10/12 10:04:41;;;;;;;6.35;3.25;;;;;;;;;;12612640;23;20018;-83
2022/10/12 10:10:17;;;;;;;6.75;3.45;;;;;;;;;;12658730;23;20059;-82
2022/10/12 10:15:24;;;;;;;6.22;3.13;;;;;;;;;;12669712;23;20014;-82
2022/10/12 10:20:31;;;;;;;7.35;2.80;;;;;;;;;;12669271;23;20088;-83
2022/10/12 10:25:35;;;;;;;5.57;2.72;;;;;;;;;;12671677;23;20006;-83
2022/10/12 10:30:37;;;;;;;7.00;3.20;;;;;;;;;;12675187;23;20006;-84
2022/10/12 10:35:52;;;;;;;5.88;2.60;;;;;;;;;;12674830;23;20022;-82
2022/10/12 10:40:56;;;;;;;6.05;2.97;;;;;;;;;;12698446;23;20002;-85
2022/10/12 10:45:58;;;;;;;9.02;2.70;;;;;;;;;;12682835;23;20009;-82
2022/10/12 10:51:29;;;;;;;6.82;2.90;;;;;;;;;;12698502;23;20025;-82
2022/10/12 10:57:05;;;;;;;5.68;3.17;;;;;;;;;;12681636;23;20006;-82
2022/10/12 11:02:38;;;;;;;6.70;2.97;;;;;;;;;;12675071;23;20041;-82
2022/10/12 11:07:59;;;;;;;7.18;3.08;;;;;;;;;;12695706;23;20333;-81
2022/10/12 11:13:10;;;;;;;6.90;2.83;;;;;;;;;;12691290;23;20004;-83
2022/10/12 11:18:14;;;;;;;5.65;2.53;;;;;;;;;;12691242;23;20104;-80
2022/10/12 11:23:15;;;;;;;6.85;3.30;;;;;;;;;;12688257;23;20013;-81
2022/10/12 11:28:16;;;;;;;6.93;3.50;;;;;;;;;;12689206;23;20013;-81
2022/10/12 11:33:26;;;;;;;7.80;3.00;;;;;;;;;;12703069;23;20010;-80
2022/10/12 11:38:50;;;;;;;6.67;3.23;;;;;;;;;;12720208;23;20002;-79
2022/10/12 11:44:24;;;;;;;8.48;2.53;;;;;;;;;;12725044;23;20082;-79
2022/10/12 11:49:37;;;;;;;6.70;2.80;;;;;;;;;;12627410;23;20017;-81
2022/10/12 12:00:35;;;;;;;6.95;2.72;;;;;;;;;;12647310;23;20025;-80
2022/10/12 12:05:36;;;;;;;6.63;3.17;;;;;;;;;;12641320;23;20064;-80
2022/10/12 12:10:39;;;;;;;4.65;2.45;;;;;;;;;;12664910;23;20002;-80
2022/10/12 12:15:42;;;;;;;6.90;2.50;;;;;;;;;;12667360;23;20017;-81
2022/10/12 12:20:43;;;;;;;6.50;2.58;;;;;;;;;;12678527;23;19998;-82
2022/10/12 12:25:44;;;;;;;5.82;2.85;;;;;;;;;;12682233;23;20006;-81
2022/10/12 12:30:56;;;;;;;8.20;3.35;;;;;;;;;;12684855;23;20002;-83
2022/10/12 12:36:02;;;;;;;6.97;2.53;;;;;;;;;;12681642;23;20017;-83
2022/10/12 12:41:05;;;;;;;4.05;2.10;;;;;;;;;;12677974;23;20017;-82
2022/10/12 12:46:10;;;;;;;5.90;3.30;;;;;;;;;;12679054;23;20010;-80
2022/10/12 12:51:23;;;;;;;4.85;2.58;;;;;;;;;;12682002;23;20093;-81
2022/10/12 12:56:32;;;;;;;5.57;2.20;;;;;;;;;;12680477;23;20501;-81
2022/10/12 13:01:39;;;;;;;5.75;2.67;;;;;;;;;;12706986;23;20454;-81
2022/10/12 13:06:46;;;;;;;6.95;2.60;;;;;;;;;;12678877;23;20033;-80
2022/10/12 13:12:19;;;;;;;7.18;2.30;;;;;;;;;;12677822;23;20089;-81
2022/10/12 13:17:38;;;;;;;7.97;2.72;;;;;;;;;;12646651;23;20010;-81
2022/10/12 13:22:40;;;;;;;5.35;2.40;;;;;;;;;;12677349;23;20081;-80
2022/10/12 13:27:48;;;;;;;6.22;2.25;;;;;;;;;;12674090;23;20036;-81
2022/10/12 13:33:08;;;;;;;5.18;2.50;;;;;;;;;;12669467;23;20011;-80
2022/10/12 13:38:16;;;;;;;5.67;2.10;;;;;;;;;;12673735;23;20338;-79
2022/10/12 13:43:28;;;;;;;4.97;2.10;;;;;;;;;;12673870;23;20044;-80
2022/10/12 13:48:29;;;;;;;7.78;2.50;;;;;;;;;;12698957;23;20013;-79
2022/10/12 13:53:35;;;;;;;9.23;4.45;;;;;;;;;;12673299;23;20005;-82
2022/10/12 13:58:36;;;;;;;7.03;2.40;;;;;;;;;;12675160;23;19994;-81
2022/10/12 14:03:39;;;;;;;5.40;2.08;;;;;;;;;;12678649;23;20013;-81
2022/10/12 14:08:40;;;;;;;5.13;2.22;;;;;;;;;;12679365;23;20038;-82
2022/10/12 14:13:41;;;;;;;7.50;2.30;;;;;;;;;;12678082;23;20054;-83
2022/10/12 14:18:43;;;;;;;6.18;2.50;;;;;;;;;;12674980;23;20434;-81
2022/10/12 14:23:49;;;;;;;6.57;2.55;;;;;;;;;;12682538;23;20088;-81
2022/10/12 14:28:50;;;;;;;5.82;2.47;;;;;;;;;;12686209;23;19994;-82
2022/10/12 14:33:51;;;;;;;4.78;2.60;;;;;;;;;;12684635;23;20010;-83
2022/10/12 14:38:53;;;;;;;8.77;3.30;;;;;;;;;;12687897;23;20470;-82
2022/10/12 14:44:10;;;;;;;7.57;3.05;;;;;;;;;;12683861;23;20070;-82
2022/10/12 14:49:17;;;;;;;5.85;2.90;;;;;;;;;;12680168;23;20025;-82
2022/10/12 14:54:18;;;;;;;6.40;2.70;;;;;;;;;;12683756;23;20037;-82
2022/10/12 15:22:00;;;;;;;7.90;2.83;;;;;;;;;;12893048;23;20016;-83
2022/10/12 15:27:01;;;;;;;6.97;3.22;;;;;;;;;;12866671;23;20020;-83
2022/10/12 15:32:02;;;;;;;4.68;2.90;;;;;;;;;;12869296;23;20001;-83
2022/10/12 15:37:05;;;;;;;7.13;3.10;;;;;;;;;;12895578;23;20001;-83
2022/10/12 15:42:06;;;;;;;6.32;2.95;;;;;;;;;;12876046;23;20028;-83
2022/10/12 15:47:09;;;;;;;7.53;3.20;;;;;;;;;;12873111;23;20004;-83
2022/10/12 16:20:40;;;;;;;8.17;3.77;;;;;;;;;;12907110;23;20028;-80
2022/10/12 16:25:50;;;;;;;8.73;4.05;;;;;;;;;;12874955;23;20019;-81
2022/10/12 18:01:06;;;;;;;4.75;3.25;;;;;;;;;;12844326;22;20080;-80
2022/10/12 18:06:15;;;;;;;10.75;6.28;;;;;;;;;;12730898;23;20437;-80
2022/10/12 18:11:17;;;;;;;7.28;4.30;;;;;;;;;;12780537;23;20032;-80
2022/10/12 18:16:41;;;;;;;6.68;4.30;;;;;;;;;;12804979;23;20092;-79
2022/10/12 18:21:44;;;;;;;6.53;5.00;;;;;;;;;;12810314;23;20009;-81
2022/10/12 18:26:46;;;;;;;10.55;6.50;;;;;;;;;;12814070;23;20342;-80
2022/10/12 18:31:48;;;;;;;6.47;4.90;;;;;;;;;;12816497;23;20009;-81
2022/10/12 18:36:53;;;;;;;8.32;4.80;;;;;;;;;;12808364;23;20009;-80
2022/10/12 18:42:13;;;;;;;7.28;5.35;;;;;;;;;;12808932;23;20003;-81
2022/10/12 18:47:16;;;;;;;6.93;5.13;;;;;;;;;;12824923;23;20013;-80
2022/10/12 18:52:40;;;;;;;6.97;5.00;;;;;;;;;;12818304;23;20001;-81
2022/10/12 18:57:42;;;;;;;7.65;5.68;;;;;;;;;;12814287;23;20005;-80
2022/10/12 19:02:47;;;;;;;7.13;5.18;;;;;;;;;;12794403;23;20016;-79
2022/10/12 19:07:48;;;;;;;9.05;6.97;;;;;;;;;;12824907;23;20008;-79
2022/10/12 19:12:51;;;;;;;9.32;7.47;;;;;;;;;;12857172;23;20028;-80
2022/10/12 19:17:52;;;;;;;10.18;7.93;;;;;;;;;;12832854;23;20036;-80
2022/10/12 19:22:53;;;;;;;10.85;8.02;;;;;;;;;;12800035;23;20005;-79
